createdAt,value
2022-10-23T00:00:15.866Z,29.20
2022-10-23T00:02:42.743Z,32.25
2022-10-23T00:05:09.509Z,26.23
2022-10-23T00:07:36.184Z,26.80
2022-10-23T00:10:03.621Z,24.38
2022-10-23T00:12:30.327Z,24.88
2022-10-23T00:14:56.987Z,33.53
2022-10-23T00:17:23.591Z,22.45
2022-10-23T00:19:50.162Z,25.08
2022-10-23T00:22:16.796Z,41.15
2022-10-23T00:24:43.477Z,50.47
2022-10-23T00:27:10.116Z,49.88
2022-10-23T00:29:36.720Z,38.28
2022-10-23T00:32:03.471Z,48.17
2022-10-23T00:34:30.098Z,45.03
2022-10-23T00:36:56.655Z,51.13
2022-10-23T00:39:23.245Z,44.72
2022-10-23T00:41:50.094Z,45.72
2022-10-23T00:44:17.823Z,43.65
2022-10-23T00:46:46.014Z,39.67
2022-10-23T00:49:13.461Z,41.83
2022-10-23T00:51:59.240Z,45.45
2022-10-23T00:54:29.812Z,57.95
2022-10-23T00:56:59.724Z,57.50
2022-10-23T00:59:27.482Z,52.33
2022-10-23T01:01:54.229Z,36.42
2022-10-23T01:04:22.486Z,37.47
2022-10-23T01:07:02.627Z,36.95
2022-10-23T01:09:49.803Z,48.55
2022-10-23T01:12:38.694Z,71.88
2022-10-23T01:15:23.467Z,43.53
2022-10-23T01:18:12.914Z,41.33
2022-10-23T01:20:46.559Z,79.00
2022-10-23T01:23:39.855Z,102.43
2022-10-23T01:26:22.732Z,106.43
2022-10-23T01:29:20.090Z,77.65
2022-10-23T01:34:27.002Z,48.05
2022-10-23T01:36:55.554Z,53.33
2022-10-23T01:39:28.419Z,72.38
2022-10-23T01:42:00.929Z,62.00
2022-10-23T01:44:36.400Z,42.58
2022-10-23T01:47:05.738Z,43.50
2022-10-23T01:49:34.496Z,63.85
2022-10-23T01:52:06.983Z,56.70
2022-10-23T01:54:39.289Z,42.55
2022-10-23T01:57:10.249Z,46.80
2022-10-23T01:59:43.877Z,49.20
2022-10-23T02:02:13.616Z,74.75
2022-10-23T02:04:46.404Z,75.60
2022-10-23T02:07:16.286Z,88.13
2022-10-23T02:09:42.921Z,91.68
2022-10-23T02:12:16.113Z,113.43
2022-10-23T02:14:48.796Z,70.10
2022-10-23T02:17:24.349Z,81.68
2022-10-23T02:20:00.005Z,66.28
2022-10-23T02:22:38.077Z,37.78
2022-10-23T02:25:09.221Z,60.70
2022-10-23T02:27:40.378Z,86.13
2022-10-23T02:30:09.784Z,57.28
2022-10-23T02:32:42.215Z,66.38
2022-10-23T02:35:09.509Z,46.50
2022-10-23T02:37:36.320Z,37.00
2022-10-23T02:40:03.987Z,48.42
2022-10-23T02:42:38.946Z,34.97
2022-10-23T02:45:12.354Z,45.50
2022-10-23T02:47:59.686Z,46.53
2022-10-23T02:50:47.143Z,57.25
2022-10-23T02:53:19.925Z,31.73
2022-10-23T02:56:08.334Z,38.10
2022-10-23T02:59:02.971Z,29.48
2022-10-23T03:01:40.209Z,30.40
2022-10-23T03:04:09.987Z,26.15
2022-10-23T03:06:37.139Z,35.08
2022-10-23T03:09:06.894Z,34.75
2022-10-23T03:11:33.734Z,35.30
2022-10-23T03:14:00.368Z,45.15
2022-10-23T03:16:27.222Z,27.50
2022-10-23T03:18:54.474Z,25.45
2022-10-23T03:21:21.070Z,29.27
2022-10-23T03:23:47.652Z,32.67
2022-10-23T03:26:14.235Z,34.75
2022-10-23T03:28:40.819Z,26.48
2022-10-23T03:31:07.383Z,40.10
2022-10-23T03:33:34.051Z,33.75
2022-10-23T03:36:00.601Z,40.38
2022-10-23T03:38:27.152Z,36.80
2022-10-23T03:40:53.804Z,43.08
2022-10-23T03:43:20.415Z,36.70
2022-10-23T03:45:47.046Z,30.55
2022-10-23T03:48:14.783Z,41.28
2022-10-23T03:50:41.392Z,36.88
2022-10-23T03:53:08.010Z,56.78
2022-10-23T03:55:34.679Z,53.95
2022-10-23T03:58:01.363Z,48.75
2022-10-23T04:00:28.070Z,56.75
2022-10-23T04:02:54.668Z,83.13
2022-10-23T04:05:21.259Z,53.80
2022-10-23T04:07:47.862Z,73.60
2022-10-23T04:10:14.459Z,73.63
2022-10-23T04:12:41.272Z,60.47
2022-10-23T04:15:08.582Z,39.75
2022-10-23T04:17:35.158Z,59.22
2022-10-23T04:20:01.933Z,84.20
2022-10-23T04:22:28.708Z,46.42
2022-10-23T04:24:56.071Z,48.00
2022-10-23T04:27:23.069Z,67.50
2022-10-23T04:29:49.697Z,64.30
2022-10-23T04:32:16.382Z,45.00
2022-10-23T04:34:42.934Z,42.47
2022-10-23T04:37:09.605Z,48.17
2022-10-23T04:39:36.164Z,50.70
2022-10-23T04:42:02.788Z,41.38
2022-10-23T04:44:29.402Z,57.60
2022-10-23T04:46:55.968Z,63.67
2022-10-23T04:49:22.657Z,37.00
2022-10-23T04:51:49.257Z,45.45
2022-10-23T04:54:15.924Z,44.85
2022-10-23T04:56:42.558Z,49.65
2022-10-23T04:59:09.536Z,54.97
2022-10-23T05:01:36.677Z,71.18
2022-10-23T05:04:03.468Z,89.55
2022-10-23T05:06:30.084Z,103.30
2022-10-23T05:08:56.686Z,111.57
2022-10-23T05:11:23.273Z,114.93
2022-10-23T05:13:50.104Z,96.65
2022-10-23T05:16:39.531Z,83.82
2022-10-23T05:19:10.054Z,87.55
2022-10-23T05:21:39.212Z,130.27
2022-10-23T05:24:06.091Z,164.93
2022-10-23T05:26:32.945Z,111.03
2022-10-23T05:28:59.568Z,155.68
2022-10-23T05:31:26.326Z,156.00
2022-10-23T05:33:55.099Z,132.20
2022-10-23T05:36:23.468Z,85.25
2022-10-23T05:38:50.846Z,100.30
2022-10-23T05:41:17.714Z,159.50
2022-10-23T05:43:46.151Z,98.55
2022-10-23T05:46:12.820Z,153.18
2022-10-23T05:48:39.440Z,100.05
2022-10-23T05:51:07.544Z,136.15
2022-10-23T05:53:36.099Z,173.02
2022-10-23T05:56:07.504Z,190.75
2022-10-23T05:58:34.828Z,156.90
2022-10-23T06:01:06.558Z,317.17
2022-10-23T06:03:33.484Z,319.95
2022-10-23T06:06:00.206Z,314.63
2022-10-23T06:08:31.290Z,210.30
2022-10-23T06:10:58.271Z,210.43
2022-10-23T06:13:24.892Z,139.95
2022-10-23T06:15:51.504Z,165.43
2022-10-23T06:18:18.127Z,230.63
2022-10-23T06:20:44.729Z,197.00
2022-10-23T06:23:14.533Z,261.98
2022-10-23T06:25:41.173Z,176.25
2022-10-23T06:28:07.739Z,213.27
2022-10-23T06:30:34.420Z,223.15
2022-10-23T06:33:03.319Z,182.75
2022-10-23T06:35:33.840Z,127.05
2022-10-23T06:38:00.443Z,211.02
2022-10-23T06:40:27.059Z,271.88
2022-10-23T06:42:55.883Z,157.73
2022-10-23T06:45:22.694Z,158.50
2022-10-23T06:47:51.440Z,158.30
2022-10-23T06:50:18.591Z,98.07
2022-10-23T06:52:47.326Z,128.05
2022-10-23T06:55:14.851Z,128.63
2022-10-23T06:57:41.916Z,101.00
2022-10-23T07:00:09.902Z,110.13
2022-10-23T07:02:36.779Z,136.60
2022-10-23T07:05:03.522Z,125.07
2022-10-23T07:07:31.299Z,92.57
2022-10-23T07:09:58.281Z,89.43
2022-10-23T07:12:24.880Z,163.15
2022-10-23T07:14:51.649Z,152.05
2022-10-23T07:17:18.281Z,121.32
2022-10-23T07:19:46.550Z,117.50
2022-10-23T07:22:15.791Z,125.68
2022-10-23T07:24:43.058Z,115.43
2022-10-23T07:27:09.731Z,116.65
2022-10-23T07:29:37.033Z,135.40
2022-10-23T07:32:04.558Z,144.50
2022-10-23T07:34:32.077Z,145.20
2022-10-23T07:36:58.721Z,138.50
2022-10-23T07:39:25.455Z,111.95
2022-10-23T07:41:53.072Z,151.52
2022-10-23T07:44:21.973Z,115.93
2022-10-23T07:46:50.908Z,135.07
2022-10-23T07:49:17.490Z,99.50
2022-10-23T07:51:48.940Z,118.68
2022-10-23T07:54:17.959Z,124.05
2022-10-23T07:56:44.622Z,143.23
2022-10-23T07:59:13.300Z,127.65
2022-10-23T08:01:43.126Z,113.85
2022-10-23T08:04:10.798Z,130.25
2022-10-23T08:06:38.299Z,136.40
2022-10-23T08:09:06.603Z,143.55
2022-10-23T08:11:35.691Z,132.98
2022-10-23T08:14:05.290Z,136.93
2022-10-23T08:16:34.471Z,154.95
2022-10-23T08:19:01.728Z,154.85
2022-10-23T08:21:28.548Z,151.75
2022-10-23T08:23:56.875Z,187.23
2022-10-23T08:26:24.718Z,251.32
2022-10-23T08:28:52.478Z,173.38
2022-10-23T08:31:21.023Z,192.07
2022-10-23T08:36:23.534Z,232.35
2022-10-23T08:38:53.601Z,222.35
2022-10-23T08:41:37.079Z,201.85
2022-10-23T08:44:38.895Z,217.40
2022-10-23T08:47:14.673Z,269.25
2022-10-23T08:49:47.935Z,254.38
2022-10-23T08:52:22.769Z,247.93
2022-10-23T08:54:57.818Z,250.93
2022-10-23T08:57:34.498Z,215.63
2022-10-23T09:00:07.198Z,202.50
2022-10-23T09:02:44.218Z,293.67
2022-10-23T09:05:16.202Z,208.00
2022-10-23T09:07:53.941Z,206.85
2022-10-23T09:10:21.565Z,235.43
2022-10-23T09:12:49.666Z,211.38
2022-10-23T09:15:35.651Z,210.15
2022-10-23T09:18:12.148Z,165.23
2022-10-23T09:20:41.874Z,165.38
2022-10-23T09:23:15.820Z,147.32
2022-10-23T09:25:45.392Z,161.10
2022-10-23T09:28:21.903Z,156.57
2022-10-23T09:30:49.968Z,203.93
2022-10-23T09:33:19.464Z,136.90
2022-10-23T09:35:56.915Z,115.00
2022-10-23T09:38:46.202Z,136.98
2022-10-23T09:41:30.965Z,125.97
2022-10-23T09:44:01.469Z,114.38
2022-10-23T09:46:45.718Z,107.88
2022-10-23T09:49:19.495Z,108.13
2022-10-23T09:52:02.438Z,148.05
2022-10-23T09:54:32.189Z,115.90
2022-10-23T09:57:17.469Z,57.88
2022-10-23T09:59:44.239Z,51.90
2022-10-23T10:02:29.137Z,37.58
2022-10-23T10:04:55.921Z,30.83
2022-10-23T10:07:28.666Z,28.63
2022-10-23T10:10:00.159Z,21.90
2022-10-23T10:12:42.092Z,22.45
2022-10-23T10:15:39.306Z,15.60
2022-10-23T10:18:21.233Z,15.80
2022-10-23T10:21:16.149Z,16.05
2022-10-23T10:23:56.326Z,17.27
2022-10-23T10:26:53.347Z,12.77
2022-10-23T10:29:44.351Z,13.27
2022-10-23T10:32:36.926Z,15.05
2022-10-23T10:35:18.802Z,11.80
2022-10-23T10:38:01.552Z,14.30
2022-10-23T10:40:34.162Z,13.82
2022-10-23T10:43:15.968Z,13.75
2022-10-23T10:45:47.992Z,14.27
2022-10-23T10:48:29.823Z,19.83
2022-10-23T10:51:02.455Z,14.90
2022-10-23T10:53:49.974Z,15.65
2022-10-23T10:56:20.412Z,19.63
2022-10-23T10:58:50.873Z,23.70
2022-10-23T11:01:27.178Z,19.90
2022-10-23T11:04:05.515Z,25.85
2022-10-23T11:06:36.684Z,24.23
2022-10-23T11:09:20.640Z,16.15
2022-10-23T11:11:49.151Z,21.95
2022-10-23T11:14:18.705Z,18.65
2022-10-23T11:16:49.812Z,19.08
2022-10-23T11:19:24.929Z,33.95
2022-10-23T11:21:57.449Z,20.85
2022-10-23T11:24:55.830Z,19.40
2022-10-23T11:27:47.950Z,23.83
2022-10-23T11:30:27.046Z,13.15
2022-10-23T11:33:24.346Z,13.82
2022-10-23T11:38:27.159Z,11.00
2022-10-23T11:40:58.211Z,20.30
2022-10-23T11:43:28.267Z,16.08
2022-10-23T11:45:55.059Z,11.80
2022-10-23T11:48:42.839Z,10.45
2022-10-23T11:51:26.811Z,6.90
2022-10-23T11:53:53.419Z,9.63
2022-10-23T11:56:19.956Z,9.52
2022-10-23T11:58:52.588Z,5.80
2022-10-23T12:01:25.891Z,7.90
2022-10-23T12:03:56.821Z,8.55
2022-10-23T12:06:30.175Z,8.68
2022-10-23T12:09:02.139Z,9.02
2022-10-23T12:11:46.977Z,10.48
2022-10-23T12:14:31.613Z,9.48
2022-10-23T12:16:58.667Z,5.75
2022-10-23T12:19:29.989Z,11.25
2022-10-23T12:22:01.212Z,9.45
2022-10-23T12:24:54.148Z,7.15
2022-10-23T12:27:34.739Z,5.90
2022-10-23T12:30:29.013Z,5.53
2022-10-23T12:33:20.972Z,6.32
2022-10-23T12:36:09.399Z,5.25
2022-10-23T12:38:45.071Z,6.05
2022-10-23T12:41:28.693Z,8.32
2022-10-23T12:43:59.910Z,10.13
2022-10-23T12:46:30.595Z,5.88
2022-10-23T12:48:58.674Z,4.88
2022-10-23T12:51:28.520Z,6.20
2022-10-23T12:53:55.232Z,6.50
2022-10-23T12:56:22.187Z,4.60
2022-10-23T12:58:55.545Z,4.53
2022-10-23T13:01:29.422Z,4.45
2022-10-23T13:04:02.481Z,5.65
2022-10-23T13:06:29.438Z,7.78
2022-10-23T13:08:57.091Z,6.90
2022-10-23T13:11:25.760Z,6.80
2022-10-23T13:13:52.710Z,5.45
2022-10-23T13:16:21.947Z,4.38
2022-10-23T13:18:49.064Z,5.93
2022-10-23T13:21:23.081Z,5.85
2022-10-23T13:23:52.608Z,6.05
2022-10-23T13:26:45.143Z,5.53
2022-10-23T13:29:29.571Z,6.05
2022-10-23T13:31:56.199Z,9.80
2022-10-23T13:34:25.151Z,8.13
2022-10-23T13:37:02.306Z,8.55
2022-10-23T13:39:32.496Z,6.72
2022-10-23T13:42:10.198Z,9.27
2022-10-23T13:44:37.621Z,12.52
2022-10-23T13:47:05.360Z,9.02
2022-10-23T13:49:32.267Z,4.15
2022-10-23T13:51:58.854Z,4.05
2022-10-23T13:56:59.337Z,4.32
2022-10-23T13:59:26.557Z,6.80
2022-10-23T14:01:53.473Z,7.45
2022-10-23T14:04:21.228Z,3.22
2022-10-23T14:06:48.093Z,4.97
2022-10-23T14:09:17.175Z,3.03
2022-10-23T14:11:47.811Z,4.10
2022-10-23T14:14:14.402Z,3.78
2022-10-23T14:16:41.539Z,6.40
2022-10-23T14:19:09.227Z,7.30
2022-10-23T14:21:36.103Z,6.00
2022-10-23T14:24:05.938Z,6.85
2022-10-23T14:26:32.928Z,9.43
2022-10-23T14:29:04.506Z,12.00
2022-10-23T14:31:35.596Z,5.97
2022-10-23T14:34:02.290Z,5.43
2022-10-23T14:36:38.449Z,4.55
2022-10-23T14:39:16.052Z,4.82
2022-10-23T14:41:42.847Z,6.28
2022-10-23T14:44:09.393Z,2.83
2022-10-23T14:46:38.154Z,4.53
2022-10-23T14:49:04.858Z,5.00
2022-10-23T14:51:31.605Z,5.55
2022-10-23T14:54:01.769Z,6.88
2022-10-23T14:56:31.211Z,4.03
2022-10-23T14:59:02.776Z,3.28
2022-10-23T15:01:33.759Z,4.30
2022-10-23T15:04:00.538Z,4.50
2022-10-23T15:06:29.787Z,5.75
2022-10-23T15:08:56.416Z,7.80
2022-10-23T15:11:24.732Z,6.50
2022-10-23T15:13:51.753Z,4.28
2022-10-23T15:16:18.419Z,3.20
2022-10-23T15:18:45.015Z,5.40
2022-10-23T15:21:11.963Z,4.97
2022-10-23T15:23:41.076Z,4.50
2022-10-23T15:26:11.521Z,5.03
2022-10-23T15:28:38.382Z,6.07
2022-10-23T15:31:06.158Z,5.68
2022-10-23T15:33:32.855Z,5.22
2022-10-23T15:36:11.544Z,2.95
2022-10-23T15:38:39.123Z,4.47
2022-10-23T15:41:15.542Z,4.30
2022-10-23T15:43:42.145Z,11.20
2022-10-23T15:46:08.820Z,6.38
2022-10-23T15:48:35.419Z,4.95
2022-10-23T15:51:02.057Z,5.82
2022-10-23T15:53:28.860Z,3.75
2022-10-23T15:55:55.950Z,13.48
2022-10-23T15:58:22.551Z,50.35
2022-10-23T16:00:49.152Z,15.80
2022-10-23T16:03:15.799Z,5.38
2022-10-23T16:05:42.390Z,9.23
2022-10-23T16:08:09.027Z,8.50
2022-10-23T16:10:40.469Z,11.98
2022-10-23T16:13:07.043Z,20.00
2022-10-23T16:15:37.761Z,20.65
2022-10-23T16:18:04.828Z,15.07
2022-10-23T16:20:31.415Z,8.85
2022-10-23T16:22:58.184Z,12.50
2022-10-23T16:25:24.841Z,9.68
2022-10-23T16:27:51.487Z,7.20
2022-10-23T16:30:18.223Z,12.90
2022-10-23T16:32:44.890Z,15.70
2022-10-23T16:35:13.099Z,18.98
2022-10-23T16:37:39.872Z,11.25
2022-10-23T16:40:07.083Z,17.80
2022-10-23T16:42:33.709Z,16.70
2022-10-23T16:45:00.329Z,17.75
2022-10-23T16:47:26.959Z,17.25
2022-10-23T16:49:53.523Z,14.38
2022-10-23T16:52:20.105Z,15.07
2022-10-23T16:54:48.790Z,14.30
2022-10-23T16:57:15.376Z,16.65
2022-10-23T16:59:42.054Z,12.48
2022-10-23T17:02:11.369Z,12.35
2022-10-23T17:04:38.805Z,14.63
2022-10-23T17:07:06.738Z,10.63
2022-10-23T17:09:33.821Z,12.68
2022-10-23T17:12:00.431Z,11.15
2022-10-23T17:14:29.233Z,8.27
2022-10-23T17:16:59.999Z,16.15
2022-10-23T17:22:15.253Z,12.50
2022-10-23T17:24:45.177Z,12.45
2022-10-23T17:27:14.146Z,11.48
2022-10-23T17:29:40.736Z,11.50
2022-10-23T17:32:07.534Z,16.98
2022-10-23T17:34:34.187Z,15.27
2022-10-23T17:37:00.955Z,10.60
2022-10-23T17:39:29.573Z,13.98
2022-10-23T17:41:57.435Z,17.50
2022-10-23T17:44:24.418Z,18.85
2022-10-23T17:46:53.524Z,13.63
2022-10-23T17:49:21.126Z,14.13
2022-10-23T17:51:52.447Z,21.67
2022-10-23T17:54:19.176Z,15.00
2022-10-23T17:56:45.823Z,18.10
2022-10-23T17:59:15.632Z,14.02
2022-10-23T18:01:48.063Z,16.17
2022-10-23T18:04:16.502Z,20.77
2022-10-23T18:06:45.917Z,20.73
2022-10-23T18:09:13.005Z,20.75
2022-10-23T18:11:46.898Z,20.52
2022-10-23T18:14:20.052Z,21.92
2022-10-23T18:16:46.995Z,24.38
2022-10-23T18:19:15.738Z,26.15
2022-10-23T18:21:42.391Z,28.45
2022-10-23T18:24:12.314Z,25.75
2022-10-23T18:26:41.179Z,24.60
2022-10-23T18:29:09.557Z,26.88
2022-10-23T18:31:37.396Z,28.92
2022-10-23T18:34:07.757Z,26.42
2022-10-23T18:36:38.441Z,22.67
2022-10-23T18:39:06.793Z,23.95
2022-10-23T18:41:37.114Z,28.45
2022-10-23T18:44:04.098Z,30.38
2022-10-23T18:46:31.066Z,32.53
2022-10-23T18:48:57.923Z,29.95
2022-10-23T18:51:29.076Z,29.27
2022-10-23T18:53:56.504Z,31.35
2022-10-23T18:56:26.083Z,29.98
2022-10-23T18:58:55.470Z,28.90
2022-10-23T19:01:23.201Z,29.88
2022-10-23T19:03:50.477Z,36.33
2022-10-23T19:06:18.102Z,35.95
2022-10-23T19:08:45.668Z,35.38
2022-10-23T19:11:14.288Z,33.58
2022-10-23T19:13:41.719Z,42.80
2022-10-23T19:16:08.418Z,32.25
2022-10-23T19:18:36.960Z,31.33
2022-10-23T19:21:06.036Z,33.72
2022-10-23T19:23:36.349Z,35.65
2022-10-23T19:26:08.936Z,37.78
2022-10-23T19:28:37.927Z,35.53
2022-10-23T19:31:05.352Z,34.70
2022-10-23T19:33:32.627Z,35.45
2022-10-23T19:36:01.246Z,36.60
2022-10-23T19:38:32.550Z,34.38
2022-10-23T19:40:59.163Z,34.78
2022-10-23T19:43:25.793Z,37.42
2022-10-23T19:45:52.376Z,35.75
2022-10-23T19:48:19.019Z,41.25
2022-10-23T19:50:46.161Z,41.17
2022-10-23T19:53:12.727Z,34.97
2022-10-23T19:55:39.383Z,35.60
2022-10-23T19:58:06.030Z,38.17
2022-10-23T20:00:32.680Z,34.65
2022-10-23T20:02:59.262Z,33.88
2022-10-23T20:05:25.868Z,41.72
2022-10-23T20:07:52.537Z,45.58
2022-10-23T20:10:19.163Z,83.93
2022-10-23T20:12:56.461Z,39.63
2022-10-23T20:15:23.633Z,40.58
2022-10-23T20:17:50.257Z,35.55
2022-10-23T20:20:16.948Z,33.13
2022-10-23T20:22:44.224Z,35.55
2022-10-23T20:25:11.042Z,38.47
2022-10-23T20:30:09.945Z,37.28
2022-10-23T20:32:36.785Z,36.78
2022-10-23T20:35:04.499Z,36.22
2022-10-23T20:37:31.061Z,44.15
2022-10-23T20:39:57.627Z,32.53
2022-10-23T20:42:24.223Z,39.10
2022-10-23T20:44:50.798Z,37.58
2022-10-23T20:47:18.110Z,31.98
2022-10-23T20:49:44.723Z,37.72
2022-10-23T20:52:11.283Z,33.97
2022-10-23T20:54:38.338Z,42.05
2022-10-23T20:57:04.942Z,37.45
2022-10-23T20:59:31.686Z,36.05
2022-10-23T21:01:58.340Z,36.35
2022-10-23T21:04:27.770Z,41.55
2022-10-23T21:07:12.815Z,37.50
2022-10-23T21:09:41.613Z,45.30
2022-10-23T21:12:08.448Z,46.70
2022-10-23T21:14:35.867Z,37.75
2022-10-23T21:17:02.995Z,35.58
2022-10-23T21:19:29.620Z,37.65
2022-10-23T21:21:56.186Z,35.03
2022-10-23T21:24:24.027Z,38.00
2022-10-23T21:26:50.726Z,36.03
2022-10-23T21:29:19.039Z,40.38
2022-10-23T21:31:53.211Z,36.80
2022-10-23T21:34:19.849Z,37.45
2022-10-23T21:37:11.323Z,40.13
2022-10-23T21:39:33.368Z,35.78
2022-10-23T21:42:00.973Z,42.42
2022-10-23T21:44:27.628Z,39.55
2022-10-23T21:46:54.225Z,37.10
2022-10-23T21:49:20.979Z,39.65
2022-10-23T21:51:47.580Z,42.08
2022-10-23T21:54:15.476Z,41.15
2022-10-23T21:56:43.607Z,39.88
2022-10-23T21:59:13.399Z,40.08
2022-10-23T22:01:43.917Z,50.67
2022-10-23T22:04:12.091Z,40.70
2022-10-23T22:06:38.952Z,37.90
2022-10-23T22:09:06.218Z,45.22
2022-10-23T22:11:33.361Z,90.68
2022-10-23T22:14:00.381Z,54.25
2022-10-23T22:16:30.535Z,46.47
2022-10-23T22:18:57.199Z,44.78
2022-10-23T22:21:29.835Z,50.10
2022-10-23T22:23:58.715Z,43.67
2022-10-23T22:26:30.306Z,43.85
2022-10-23T22:29:02.879Z,49.63
2022-10-23T22:31:32.710Z,47.08
2022-10-23T22:34:12.995Z,47.42
2022-10-23T22:36:47.728Z,42.15
2022-10-23T22:39:14.337Z,38.33
2022-10-23T22:41:41.010Z,39.47
2022-10-23T22:44:07.588Z,43.58
2022-10-23T22:46:34.176Z,45.05
2022-10-23T22:49:00.838Z,42.55
2022-10-23T22:51:28.937Z,43.00
2022-10-23T22:53:56.036Z,37.25
2022-10-23T22:56:25.153Z,41.08
2022-10-23T22:58:52.131Z,40.60
2022-10-23T23:01:33.532Z,41.38
2022-10-23T23:04:08.887Z,42.25
2022-10-23T23:06:47.420Z,40.70
2022-10-23T23:09:17.919Z,44.17
2022-10-23T23:11:52.065Z,41.58
2022-10-23T23:14:23.140Z,41.17
2022-10-23T23:16:52.128Z,45.92
2022-10-23T23:19:18.833Z,42.47
2022-10-23T23:21:45.405Z,47.13
2022-10-23T23:24:12.260Z,49.90
2022-10-23T23:26:39.172Z,47.35
2022-10-23T23:29:05.855Z,67.63
2022-10-23T23:31:32.519Z,61.38
2022-10-23T23:33:59.229Z,59.75
2022-10-23T23:36:27.373Z,56.38
2022-10-23T23:38:56.518Z,63.17
2022-10-23T23:41:23.932Z,61.33
2022-10-23T23:43:50.545Z,59.35
2022-10-23T23:46:17.953Z,62.13
2022-10-23T23:48:48.040Z,68.78
2022-10-23T23:51:18.292Z,75.60
2022-10-23T23:53:44.893Z,70.00
2022-10-23T23:56:11.510Z,76.22
2022-10-23T23:58:38.385Z,78.15
